Terminal Aerodrome Forecast
Issued by NWS

Home | Current Version | Previous Version | Graphics & Text | Print | Product List | Glossary On
Versions: 1 2 3 4 5 6 7 8 9 10 11 12 13 14
000
FTUS43 KMPX 170900 AAA
TAFAXN
TAF AMD
KAXN 170903Z 1709/1806 32005KT P6SM SCT007 BKN040
      TEMPO 1709/1711 BKN007
     FM171500 01005KT P6SM SCT020 BKN250
     FM172200 05004KT P6SM SCT250
     FM180300 08003KT P6SM SCT250=

USA.gov is the U.S. government's official web portal to all federal, state and local government web resources and services.